createdAt,value
2022-12-01T06:16:33.514Z,1019.29
2022-12-01T06:26:33.280Z,1019.27
2022-12-01T06:36:33.370Z,1019.33
2022-12-01T06:46:33.661Z,1019.31
2022-12-01T06:56:33.608Z,1019.39
2022-12-01T07:06:33.469Z,1019.51
2022-12-01T07:16:33.531Z,1019.37
2022-12-01T07:26:33.455Z,1019.35
2022-12-01T07:36:33.369Z,1019.40
2022-12-01T07:46:33.554Z,1019.65
2022-12-01T07:56:33.503Z,1019.67
2022-12-01T08:06:33.474Z,1019.68
2022-12-01T08:16:33.440Z,1019.73
2022-12-01T08:26:33.440Z,1019.78
2022-12-01T08:36:33.629Z,1019.93
2022-12-01T08:46:33.799Z,1020.05
2022-12-01T08:56:33.872Z,1020.08
2022-12-01T09:06:33.993Z,1020.10
2022-12-01T09:16:34.000Z,1020.17
2022-12-01T09:26:33.790Z,1020.26
2022-12-01T09:36:33.875Z,1020.13
2022-12-01T09:46:33.889Z,1020.01
2022-12-01T09:56:33.931Z,1020.06
2022-12-01T10:06:34.013Z,1019.93
2022-12-01T10:16:33.919Z,1019.97
2022-12-01T10:26:33.959Z,1019.80
2022-12-01T10:36:33.840Z,1019.84
2022-12-01T10:46:33.799Z,1019.84
2022-12-01T10:56:34.068Z,1019.77
2022-12-01T11:06:33.940Z,1019.77
2022-12-01T11:16:34.083Z,1019.66
2022-12-01T11:26:33.949Z,1019.64
2022-12-01T11:36:34.021Z,1019.74
2022-12-01T11:46:34.037Z,1019.67
2022-12-01T11:56:34.057Z,1019.63
2022-12-01T12:16:33.930Z,1019.60
2022-12-01T12:26:34.018Z,1019.69
2022-12-01T12:36:33.933Z,1019.70
2022-12-01T12:46:33.964Z,1019.68
2022-12-01T12:56:33.763Z,1019.74
2022-12-01T13:06:33.777Z,1019.80
2022-12-01T13:16:33.769Z,1019.72
2022-12-01T13:26:33.775Z,1019.66
2022-12-01T13:36:47.051Z,1019.68
2022-12-01T13:46:34.809Z,1019.79
2022-12-01T13:56:37.497Z,1019.73
2022-12-01T14:06:33.767Z,1019.86
2022-12-01T14:16:33.853Z,1020.00
2022-12-01T14:26:33.818Z,1019.99
2022-12-01T14:36:33.847Z,1020.19
2022-12-01T14:46:33.853Z,1020.24
2022-12-01T14:56:33.938Z,1020.29
2022-12-01T15:06:33.897Z,1020.22
2022-12-01T15:16:33.968Z,1020.10
2022-12-01T15:26:33.944Z,1020.01
2022-12-01T15:36:33.940Z,1019.91
2022-12-01T15:46:33.895Z,1019.98
2022-12-01T15:56:34.088Z,1020.04
2022-12-01T16:06:34.007Z,1020.09
2022-12-01T16:16:33.999Z,1020.08
2022-12-01T16:26:34.071Z,1020.12
2022-12-01T16:36:34.072Z,1020.07
2022-12-01T16:46:34.080Z,1020.10
2022-12-01T16:56:33.981Z,1020.10
2022-12-01T17:06:34.074Z,1020.04
2022-12-01T17:16:34.104Z,1020.16
2022-12-01T17:26:33.923Z,1020.07
2022-12-01T17:36:34.046Z,1020.10
2022-12-01T17:46:34.124Z,1020.12
2022-12-01T17:56:33.915Z,1020.19
2022-12-01T18:06:34.103Z,1020.28
2022-12-01T18:16:33.985Z,1020.30
2022-12-01T18:26:34.128Z,1020.28
2022-12-01T18:36:34.101Z,1020.28
2022-12-01T18:46:34.048Z,1020.31
2022-12-01T18:56:34.047Z,1020.28
2022-12-01T19:06:34.136Z,1020.36
2022-12-01T19:16:34.473Z,1020.25
